Time;durP1;ratioP1;P1;durP2;ratioP2;P2;SDS_P1;SDS_P2;PMS_P1;PMS_P2;Temp;Humidity;BMP_temperature;BMP_pressure;BME280_temperature;BME280_humidity;BME280_pressure;Samples;Min_cycle;Max_cycle;Signal;HPM_P1;HPM_P2
2022/02/06 00:01:11;;;;;;;16.83;4.13;;;7.60;99.90;;;;;;4932580;29;20035;-88
2022/02/06 00:03:37;;;;;;;17.33;3.78;;;7.60;99.90;;;;;;4921181;29;20035;-82
2022/02/06 00:06:03;;;;;;;20.95;4.93;;;7.60;99.90;;;;;;4918679;29;20031;-83
2022/02/06 00:08:30;;;;;;;19.35;3.90;;;7.60;99.90;;;;;;4934774;29;20104;-82
2022/02/06 00:10:56;;;;;;;20.45;4.28;;;7.60;99.90;;;;;;4940948;29;20453;-82
2022/02/06 00:13:21;;;;;;;16.83;4.28;;;7.60;99.90;;;;;;4924784;29;20048;-83
2022/02/06 00:15:47;;;;;;;22.83;4.22;;;7.60;99.90;;;;;;4956975;28;20028;-83
2022/02/06 00:18:13;;;;;;;14.93;4.10;;;7.70;99.90;;;;;;4921137;29;20024;-82
2022/02/06 00:20:51;;;;;;;24.90;3.78;;;7.70;99.90;;;;;;4942251;29;20032;-82
2022/02/06 00:23:19;;;;;;;17.38;3.80;;;7.70;99.90;;;;;;4925803;29;20055;-83
2022/02/06 00:25:55;;;;;;;19.90;4.82;;;7.70;99.90;;;;;;4928829;29;20068;-83
2022/02/06 00:31:23;;;;;;;22.08;4.80;;;7.80;99.90;;;;;;4941835;29;20115;-83
2022/02/06 00:39:04;;;;;;;21.33;5.13;;;7.90;99.90;;;;;;4939828;29;20107;-82
2022/02/06 00:41:30;;;;;;;20.92;4.05;;;7.90;99.90;;;;;;4927758;29;20458;-82
2022/02/06 00:43:56;;;;;;;27.10;4.78;;;7.90;99.90;;;;;;4941622;29;20042;-82
2022/02/06 00:46:23;;;;;;;24.05;5.10;;;7.90;99.90;;;;;;4926869;29;20089;-82
2022/02/06 00:48:54;;;;;;;27.55;4.65;;;7.90;99.90;;;;;;4937539;29;20064;-82
2022/02/06 00:51:51;;;;;;;33.38;5.38;;;7.90;99.90;;;;;;4942590;29;20051;-83
2022/02/06 00:54:08;;;;;;;22.10;5.00;;;7.90;99.90;;;;;;4938195;29;20043;-88
2022/02/06 00:56:34;;;;;;;25.17;4.88;;;7.90;99.90;;;;;;4944742;29;20030;-81
2022/02/06 00:59:00;;;;;;;25.13;4.70;;;7.90;99.90;;;;;;4924795;29;20096;-82
2022/02/06 01:01:26;;;;;;;23.15;4.53;;;7.90;99.90;;;;;;4939406;29;20040;-83
2022/02/06 01:03:53;;;;;;;20.15;4.45;;;7.90;99.90;;;;;;4956681;29;20440;-83
2022/02/06 01:06:20;;;;;;;23.88;4.43;;;7.90;99.90;;;;;;4940189;29;20095;-83
2022/02/06 01:08:46;;;;;;;27.10;5.22;;;7.90;99.90;;;;;;4925071;29;20417;-84
2022/02/06 01:11:12;;;;;;;22.15;4.28;;;8.00;99.90;;;;;;4925391;29;20020;-90
2022/02/06 01:16:19;;;;;;;24.27;4.95;;;8.00;99.90;;;;;;4938336;29;20035;-82
2022/02/06 01:18:54;;;;;;;21.67;5.65;;;8.00;99.90;;;;;;4928738;29;20439;-82
2022/02/06 01:22:09;;;;;;;23.33;4.93;;;8.00;99.90;;;;;;4941797;29;20095;-82
2022/02/06 01:26:53;;;;;;;27.27;5.40;;;8.00;99.90;;;;;;4939042;29;20043;-82
2022/02/06 01:31:54;;;;;;;28.33;4.72;;;8.00;99.90;;;;;;4941512;29;20040;-82
2022/02/06 01:34:25;;;;;;;20.40;4.55;;;8.00;99.90;;;;;;4955767;29;20051;-82
2022/02/06 01:42:23;;;;;;;24.88;5.13;;;8.00;99.90;;;;;;4943011;29;20054;-82
2022/02/06 01:45:06;;;;;;;21.05;4.65;;;7.90;99.90;;;;;;4942217;29;20566;-82
2022/02/06 02:48:02;;;;;;;32.30;6.72;;;8.10;99.90;;;;;;4924404;29;20039;-82
2022/02/06 02:50:30;;;;;;;23.90;4.75;;;8.00;99.90;;;;;;4941086;29;20031;-82
2022/02/06 02:56:11;;;;;;;29.20;6.43;;;8.00;99.90;;;;;;4924592;29;20579;-82
2022/02/06 03:03:59;;;;;;;30.85;5.50;;;8.00;99.90;;;;;;4934171;29;20051;-82
2022/02/06 03:06:25;;;;;;;30.88;6.35;;;8.00;99.90;;;;;;4923774;29;20066;-82
2022/02/06 03:08:53;;;;;;;36.00;6.50;;;8.00;99.90;;;;;;4926557;29;20027;-82
2022/02/06 03:11:18;;;;;;;26.50;5.30;;;8.00;99.90;;;;;;4951907;29;20035;-82
2022/02/06 03:14:08;;;;;;;30.70;5.97;;;8.10;99.90;;;;;;4949651;29;20051;-82
2022/02/06 03:16:37;;;;;;;33.53;5.88;;;8.00;99.90;;;;;;4941062;29;20032;-82
2022/02/06 03:19:11;;;;;;;27.70;6.10;;;8.10;99.90;;;;;;4940843;29;20027;-82
2022/02/06 03:21:39;;;;;;;27.27;6.13;;;8.00;99.90;;;;;;4935992;29;20503;-83
2022/02/06 03:24:19;;;;;;;34.05;5.53;;;8.10;99.90;;;;;;4939171;29;20055;-82
2022/02/06 03:26:46;;;;;;;30.70;5.95;;;8.10;99.90;;;;;;4938561;29;20055;-83
2022/02/06 03:29:13;;;;;;;32.17;5.85;;;8.10;99.90;;;;;;4955197;28;20030;-82
2022/02/06 03:31:40;;;;;;;25.45;4.82;;;8.10;99.90;;;;;;4937219;29;20034;-82
2022/02/06 03:34:06;;;;;;;30.45;5.38;;;8.10;99.90;;;;;;4955245;29;20537;-83
2022/02/06 03:36:32;;;;;;;23.48;5.32;;;8.10;99.90;;;;;;4923222;29;20028;-82
2022/02/06 03:38:58;;;;;;;31.65;5.70;;;8.10;99.90;;;;;;4907260;29;20024;-82
2022/02/06 03:41:26;;;;;;;29.02;6.20;;;8.20;99.90;;;;;;4904119;29;20032;-83
2022/02/06 03:46:28;;;;;;;29.60;6.10;;;8.10;99.90;;;;;;4937364;29;20035;-82
2022/02/06 03:51:30;;;;;;;28.77;5.30;;;8.10;99.90;;;;;;4935165;29;20441;-82
2022/02/06 03:53:56;;;;;;;22.98;5.03;;;8.10;99.90;;;;;;4909115;29;20074;-82
2022/02/06 03:56:22;;;;;;;29.40;5.93;;;8.10;99.90;;;;;;4938370;29;20028;-83
2022/02/06 03:58:48;;;;;;;22.48;4.72;;;8.10;99.90;;;;;;4936588;29;20027;-82
2022/02/06 04:01:15;;;;;;;29.17;5.20;;;8.10;99.90;;;;;;4922261;29;20024;-82
2022/02/06 04:03:41;;;;;;;25.35;4.97;;;8.10;99.90;;;;;;4925203;29;20051;-82
2022/02/06 04:06:06;;;;;;;29.88;5.32;;;8.10;99.90;;;;;;4921902;29;20051;-82
2022/02/06 04:08:35;;;;;;;22.55;5.05;;;8.20;99.90;;;;;;4920092;29;20037;-83
2022/02/06 04:11:04;;;;;;;25.90;5.07;;;8.20;99.90;;;;;;4923763;29;20035;-83
2022/02/06 04:13:34;;;;;;;26.08;5.15;;;8.10;99.90;;;;;;4937555;29;20082;-82
2022/02/06 04:16:03;;;;;;;25.00;4.97;;;8.10;99.90;;;;;;4937223;29;20445;-83
2022/02/06 04:18:41;;;;;;;24.33;4.43;;;8.10;99.90;;;;;;4921170;29;20040;-84
2022/02/06 04:21:07;;;;;;;23.05;4.45;;;8.10;99.90;;;;;;4926972;29;20032;-83
2022/02/06 04:23:33;;;;;;;26.08;4.53;;;8.10;99.90;;;;;;4922225;29;20163;-83
2022/02/06 04:25:58;;;;;;;20.73;5.35;;;8.10;99.90;;;;;;4921784;29;20112;-84
2022/02/06 04:28:24;;;;;;;28.40;5.55;;;8.10;99.90;;;;;;4918585;29;20032;-84
2022/02/06 04:30:50;;;;;;;25.85;4.88;;;8.10;99.90;;;;;;4923092;29;20028;-84
2022/02/06 04:33:16;;;;;;;22.08;5.35;;;8.10;99.90;;;;;;4920391;29;20047;-84
2022/02/06 04:35:41;;;;;;;21.55;4.70;;;8.10;99.90;;;;;;4919958;29;20043;-83
2022/02/06 04:44:04;;;;;;;22.92;4.88;;;8.10;99.90;;;;;;4936316;29;20039;-83
2022/02/06 05:34:12;;;;;;;25.75;5.03;;;8.20;99.90;;;;;;4941468;29;20086;-83
2022/02/06 05:36:38;;;;;;;24.20;4.38;;;8.20;99.90;;;;;;4923375;29;20076;-82
2022/02/06 05:39:05;;;;;;;25.60;5.05;;;8.20;99.90;;;;;;4955085;29;20036;-84
2022/02/06 05:41:30;;;;;;;32.85;5.50;;;8.20;99.90;;;;;;4924292;29;20028;-83
2022/02/06 05:43:57;;;;;;;22.08;4.93;;;8.20;99.90;;;;;;4937255;29;20054;-83
2022/02/06 05:46:22;;;;;;;26.08;5.40;;;8.20;99.90;;;;;;4954452;29;20028;-83
2022/02/06 05:48:48;;;;;;;25.55;5.07;;;8.20;99.90;;;;;;4940687;29;20038;-83
2022/02/06 05:51:14;;;;;;;21.67;4.80;;;8.10;99.90;;;;;;4921659;29;20067;-83
2022/02/06 05:53:41;;;;;;;25.33;5.07;;;8.10;99.90;;;;;;4957592;29;20032;-83
2022/02/06 05:56:07;;;;;;;29.73;6.55;;;8.10;99.90;;;;;;4941143;29;20460;-83
2022/02/06 05:58:33;;;;;;;24.73;5.30;;;8.10;99.90;;;;;;4924930;29;20611;-83
2022/02/06 06:00:58;;;;;;;21.63;4.82;;;8.00;99.90;;;;;;4921458;29;20035;-83
2022/02/06 06:03:25;;;;;;;20.17;4.53;;;8.20;99.90;;;;;;4940852;29;20031;-84
2022/02/06 06:05:51;;;;;;;21.65;4.30;;;8.10;99.90;;;;;;4922275;29;20036;-82
2022/02/06 06:08:17;;;;;;;25.80;4.85;;;8.10;99.90;;;;;;4913416;29;20500;-82
2022/02/06 06:10:42;;;;;;;24.98;5.65;;;8.20;99.90;;;;;;4952857;29;20090;-82
2022/02/06 06:13:09;;;;;;;22.38;5.18;;;8.10;99.90;;;;;;4924023;29;20059;-81
2022/02/06 06:15:36;;;;;;;29.38;5.40;;;8.10;99.90;;;;;;4924644;29;20131;-82
2022/02/06 06:18:04;;;;;;;35.70;5.55;;;8.10;99.90;;;;;;4937081;29;20031;-81
2022/02/06 06:20:36;;;;;;;28.23;5.50;;;8.00;99.90;;;;;;4923195;29;20031;-82
2022/02/06 06:23:01;;;;;;;26.58;4.93;;;8.10;99.90;;;;;;4953810;29;20058;-83
2022/02/06 06:25:34;;;;;;;32.03;5.40;;;8.10;99.90;;;;;;4938866;29;20035;-83
2022/02/06 06:28:00;;;;;;;32.15;5.38;;;8.10;99.90;;;;;;4937779;29;20144;-82
2022/02/06 06:30:27;;;;;;;28.45;4.70;;;8.10;99.90;;;;;;4924301;29;20048;-82
2022/02/06 06:32:52;;;;;;;27.85;4.88;;;8.10;99.90;;;;;;4936083;29;20031;-83
2022/02/06 06:35:18;;;;;;;25.80;5.07;;;8.10;99.90;;;;;;4936156;29;20104;-81
2022/02/06 06:37:44;;;;;;;25.70;5.10;;;8.20;99.90;;;;;;4937100;29;20039;-82
2022/02/06 06:40:10;;;;;;;17.48;4.82;;;8.10;99.90;;;;;;4937689;29;20039;-81
2022/02/06 06:42:36;;;;;;;24.50;4.68;;;8.10;99.90;;;;;;4910836;29;20038;-83
2022/02/06 06:45:02;;;;;;;25.13;4.78;;;8.10;99.90;;;;;;4923556;29;20027;-83
2022/02/06 06:47:28;;;;;;;24.20;4.63;;;8.10;99.90;;;;;;4953981;29;20031;-83
2022/02/06 06:49:55;;;;;;;23.52;4.57;;;8.10;99.90;;;;;;4942136;29;20114;-81
2022/02/06 06:52:21;;;;;;;25.60;5.10;;;8.00;99.90;;;;;;4923744;29;20036;-83
2022/02/06 06:54:50;;;;;;;23.95;4.88;;;8.10;99.90;;;;;;4953773;29;20078;-83
2022/02/06 06:57:26;;;;;;;24.10;5.10;;;8.10;99.90;;;;;;4939011;29;20036;-84
2022/02/06 07:04:49;;;;;;;25.88;4.50;;;8.10;99.90;;;;;;4939222;29;20087;-82
2022/02/06 07:07:15;;;;;;;32.10;5.10;;;8.10;99.90;;;;;;4938282;29;20074;-83
2022/02/06 07:09:41;;;;;;;24.42;4.32;;;8.20;99.90;;;;;;4951151;29;20038;-82
2022/02/06 07:12:10;;;;;;;23.80;4.75;;;8.20;99.90;;;;;;4956172;29;20542;-82
2022/02/06 07:14:36;;;;;;;25.40;4.40;;;8.20;99.90;;;;;;4922198;29;20075;-82
2022/02/06 07:17:02;;;;;;;20.70;3.88;;;8.20;99.90;;;;;;4921326;29;20142;-81
2022/02/06 07:19:28;;;;;;;24.90;4.38;;;8.20;99.90;;;;;;4933374;29;20039;-81
2022/02/06 07:21:55;;;;;;;22.10;4.95;;;8.20;99.90;;;;;;4922298;29;20043;-81
2022/02/06 07:24:21;;;;;;;29.48;5.28;;;8.30;99.90;;;;;;4920280;29;20028;-82
2022/02/06 07:26:51;;;;;;;28.75;5.20;;;8.30;99.90;;;;;;4937647;29;20032;-82
2022/02/06 07:29:17;;;;;;;26.13;4.50;;;8.30;99.90;;;;;;4936473;29;20211;-82
2022/02/06 07:31:45;;;;;;;21.70;4.68;;;8.40;99.90;;;;;;4920970;29;20050;-83
2022/02/06 07:34:11;;;;;;;24.25;4.22;;;8.40;99.90;;;;;;4935529;29;20472;-82
2022/02/06 07:36:37;;;;;;;18.13;3.70;;;8.40;99.90;;;;;;4939794;29;20024;-82
2022/02/06 07:39:04;;;;;;;19.17;3.60;;;8.40;99.90;;;;;;4920956;29;20123;-82
2022/02/06 07:41:29;;;;;;;20.55;4.43;;;8.40;99.90;;;;;;4939133;29;20024;-82
2022/02/06 07:43:55;;;;;;;17.92;3.67;;;8.40;99.90;;;;;;4922419;29;20566;-83
2022/02/06 07:46:29;;;;;;;24.35;4.50;;;8.30;99.90;;;;;;4935314;29;20043;-82
2022/02/06 07:48:59;;;;;;;19.27;3.85;;;8.40;99.90;;;;;;4937648;29;20082;-82
2022/02/06 07:51:25;;;;;;;22.77;4.78;;;8.30;99.90;;;;;;4932811;29;20099;-83
2022/02/06 07:53:51;;;;;;;27.83;4.47;;;8.40;99.90;;;;;;4937400;29;20047;-82
2022/02/06 07:56:16;;;;;;;21.10;4.28;;;8.40;99.90;;;;;;4938317;29;20035;-82
2022/02/06 07:58:42;;;;;;;18.55;3.85;;;8.40;99.90;;;;;;4920556;29;20032;-82
2022/02/06 08:01:08;;;;;;;26.67;4.40;;;8.40;99.90;;;;;;4898780;29;20087;-84
2022/02/06 08:03:33;;;;;;;26.23;4.07;;;8.30;99.90;;;;;;4931601;29;20047;-83
2022/02/06 08:05:59;;;;;;;24.27;3.80;;;8.30;99.90;;;;;;4936191;29;20098;-83
2022/02/06 08:08:25;;;;;;;26.85;4.78;;;8.40;99.90;;;;;;4935801;29;20032;-83
2022/02/06 08:10:57;;;;;;;21.40;4.50;;;8.40;99.90;;;;;;4935268;29;20066;-83
2022/02/06 08:13:28;;;;;;;24.42;4.18;;;8.40;99.90;;;;;;4927082;28;20353;-83
2022/02/06 08:15:54;;;;;;;21.25;4.63;;;8.40;99.90;;;;;;4957747;28;20118;-83
2022/02/06 08:18:20;;;;;;;25.60;4.75;;;8.40;99.90;;;;;;4960578;28;20038;-83
2022/02/06 08:20:46;;;;;;;23.70;4.65;;;8.40;99.90;;;;;;4942531;28;20038;-83
2022/02/06 08:23:13;;;;;;;28.25;4.15;;;8.40;99.90;;;;;;4944182;28;20027;-82
2022/02/06 08:25:39;;;;;;;28.65;4.57;;;8.40;99.90;;;;;;4942885;28;20034;-83
2022/02/06 08:28:05;;;;;;;24.58;4.72;;;8.40;99.90;;;;;;4950947;28;20031;-81
2022/02/06 08:30:31;;;;;;;25.13;4.53;;;8.40;99.90;;;;;;4960475;28;20090;-83
2022/02/06 08:32:57;;;;;;;23.65;4.15;;;8.40;99.90;;;;;;4942914;28;20031;-84
2022/02/06 08:35:24;;;;;;;21.13;4.03;;;8.40;99.90;;;;;;4960183;28;20031;-85
2022/02/06 08:37:51;;;;;;;23.52;3.72;;;8.40;99.90;;;;;;4959095;28;20455;-86
2022/02/06 08:40:16;;;;;;;22.92;4.70;;;8.40;99.90;;;;;;4965735;28;20031;-91
2022/02/06 08:42:44;;;;;;;22.75;4.82;;;8.40;99.90;;;;;;4960873;28;20419;-88
2022/02/06 08:45:15;;;;;;;28.90;3.97;;;8.40;99.90;;;;;;4976888;28;20019;-84
2022/02/06 08:47:46;;;;;;;25.77;3.60;;;8.40;99.90;;;;;;4974424;28;20039;-81
2022/02/06 08:50:12;;;;;;;21.50;4.45;;;8.30;99.90;;;;;;4967834;28;20286;-83
2022/02/06 08:52:38;;;;;;;21.48;4.40;;;8.30;99.90;;;;;;4948570;28;20274;-87
2022/02/06 08:55:08;;;;;;;18.35;3.75;;;8.30;99.90;;;;;;4977113;28;20042;-89
2022/02/06 08:57:34;;;;;;;20.52;4.18;;;8.40;99.90;;;;;;4978356;28;20096;-82
2022/02/06 09:00:00;;;;;;;20.67;3.38;;;8.40;99.90;;;;;;4978891;28;20042;-82
2022/02/06 09:02:26;;;;;;;19.23;4.35;;;8.30;99.90;;;;;;4980241;28;20332;-81
2022/02/06 09:04:52;;;;;;;20.50;4.00;;;8.30;99.90;;;;;;4963743;28;20046;-82
2022/02/06 09:07:20;;;;;;;20.25;3.47;;;8.40;99.90;;;;;;4964807;28;20034;-80
2022/02/06 09:09:48;;;;;;;22.98;4.05;;;8.30;99.90;;;;;;4963489;28;20094;-81
2022/02/06 09:12:15;;;;;;;16.58;3.35;;;8.30;99.90;;;;;;4983189;28;20041;-81
2022/02/06 09:14:42;;;;;;;16.35;3.88;;;8.30;99.90;;;;;;4964653;28;20043;-80
2022/02/06 09:17:11;;;;;;;21.67;3.53;;;8.30;99.90;;;;;;4965322;28;20042;-80
2022/02/06 09:19:39;;;;;;;27.92;4.90;;;8.30;99.90;;;;;;4951402;28;20442;-80
2022/02/06 09:22:06;;;;;;;19.75;4.30;;;8.30;99.90;;;;;;4978384;28;20028;-81
2022/02/06 09:24:31;;;;;;;22.75;5.05;;;8.30;99.90;;;;;;4954673;28;20027;-80
2022/02/06 09:26:57;;;;;;;15.38;3.60;;;8.30;99.90;;;;;;4978806;28;20223;-80
2022/02/06 09:29:23;;;;;;;16.35;4.10;;;8.30;99.90;;;;;;4966899;28;20130;-81
2022/02/06 09:31:51;;;;;;;17.05;4.18;;;8.30;99.90;;;;;;4947088;28;20038;-81
2022/02/06 09:36:43;;;;;;;18.60;3.80;;;8.30;99.90;;;;;;4979865;28;20033;-80
2022/02/06 09:39:11;;;;;;;16.58;4.03;;;8.30;99.90;;;;;;4961186;28;20066;-80
2022/02/06 09:41:41;;;;;;;22.02;3.60;;;8.30;99.90;;;;;;4971504;28;20059;-81
2022/02/06 09:44:08;;;;;;;15.63;3.47;;;8.40;99.90;;;;;;4978935;28;20349;-81
2022/02/06 09:46:35;;;;;;;13.68;3.55;;;8.40;99.90;;;;;;4961899;28;20023;-81
2022/02/06 09:49:03;;;;;;;16.35;3.63;;;8.40;99.90;;;;;;4964466;28;20035;-81
2022/02/06 09:51:28;;;;;;;18.58;3.45;;;8.30;99.90;;;;;;4964095;28;20131;-81
2022/02/06 09:53:55;;;;;;;14.02;3.15;;;8.40;99.90;;;;;;4972718;28;20071;-81
2022/02/06 09:56:23;;;;;;;16.65;3.25;;;8.40;99.90;;;;;;4972629;28;20019;-80
2022/02/06 09:59:03;;;;;;;14.07;3.17;;;8.40;99.90;;;;;;4974817;28;20090;-80
2022/02/06 10:01:34;;;;;;;16.15;2.70;;;8.40;99.90;;;;;;4974365;28;20054;-80
2022/02/06 10:04:06;;;;;;;15.60;2.63;;;8.50;99.90;;;;;;4980733;28;20086;-81
2022/02/06 10:06:33;;;;;;;;;;;8.40;99.90;;;;;;4974262;28;20034;-80
2022/02/06 10:09:01;;;;;;;11.40;2.83;;;8.50;99.90;;;;;;4977051;28;19969;-81
2022/02/06 10:11:30;;;;;;;10.30;3.42;;;8.40;99.90;;;;;;4975807;28;20023;-81
2022/02/06 10:13:56;;;;;;;10.18;2.65;;;8.50;99.90;;;;;;4979417;28;20082;-81
2022/02/06 10:16:23;;;;;;;14.50;3.00;;;8.40;99.90;;;;;;4966280;28;20031;-80
2022/02/06 10:18:49;;;;;;;20.20;3.47;;;8.40;99.90;;;;;;4970961;28;20440;-81
2022/02/06 10:21:21;;;;;;;16.63;3.40;;;8.40;99.90;;;;;;4964173;28;20470;-88
2022/02/06 10:23:59;;;;;;;12.95;2.88;;;8.40;99.90;;;;;;4973657;28;20102;-83
2022/02/06 10:26:45;;;;;;;14.80;3.15;;;8.40;99.90;;;;;;4963628;28;20031;-81
2022/02/06 10:31:52;;;;;;;13.27;2.97;;;8.50;99.90;;;;;;4980049;28;20062;-82
2022/02/06 10:34:24;;;;;;;12.95;2.60;;;8.40;99.90;;;;;;4972605;28;20065;-82
2022/02/06 10:37:20;;;;;;;13.07;2.90;;;8.50;99.90;;;;;;4971589;28;20023;-81
2022/02/06 10:40:00;;;;;;;14.80;2.60;;;8.50;99.90;;;;;;4961587;28;20085;-82
2022/02/06 10:42:33;;;;;;;11.50;2.20;;;8.50;99.90;;;;;;4961482;28;20048;-82
2022/02/06 10:45:18;;;;;;;15.30;2.88;;;8.50;99.90;;;;;;4961588;28;20062;-82
2022/02/06 10:47:45;;;;;;;13.07;2.80;;;8.60;99.90;;;;;;4964308;28;20066;-83
2022/02/06 10:50:15;;;;;;;15.93;3.30;;;8.50;99.90;;;;;;4959783;28;20066;-81
2022/02/06 10:52:41;;;;;;;13.43;3.10;;;8.50;99.90;;;;;;4974628;28;20043;-81
2022/02/06 10:55:07;;;;;;;12.85;2.50;;;8.50;99.90;;;;;;4962662;28;20142;-81
2022/02/06 10:57:35;;;;;;;10.00;1.63;;;8.50;99.90;;;;;;4961945;28;20072;-83
2022/02/06 11:00:03;;;;;;;6.15;1.20;;;7.80;99.90;;;;;;4949174;28;20051;-83
2022/02/06 11:02:38;;;;;;;6.30;0.70;;;6.90;99.90;;;;;;4964359;28;20022;-83
2022/02/06 11:05:16;;;;;;;5.05;0.73;;;6.70;99.90;;;;;;4958497;28;20046;-83
2022/02/06 11:07:54;;;;;;;4.20;0.70;;;6.50;99.90;;;;;;4975953;28;20043;-83
2022/02/06 11:10:24;;;;;;;4.35;0.82;;;6.40;99.90;;;;;;4967085;28;20031;-84
2022/02/06 11:13:06;;;;;;;4.45;0.88;;;6.20;99.90;;;;;;4968480;28;20054;-84
2022/02/06 11:15:37;;;;;;;5.20;0.90;;;6.20;99.90;;;;;;4943520;28;20142;-83
2022/02/06 11:18:18;;;;;;;4.40;0.90;;;6.20;99.90;;;;;;4970330;28;20035;-83
2022/02/06 11:20:56;;;;;;;5.60;0.90;;;6.10;99.90;;;;;;4976147;28;20038;-82
2022/02/06 11:23:38;;;;;;;8.93;1.00;;;6.00;99.90;;;;;;4956218;28;20437;-83
2022/02/06 11:26:26;;;;;;;4.93;0.98;;;6.10;99.90;;;;;;4952914;28;20051;-84
2022/02/06 11:28:54;;;;;;;3.75;0.80;;;6.00;99.90;;;;;;4957850;28;20067;-85
2022/02/06 11:31:21;;;;;;;7.75;0.82;;;6.00;99.90;;;;;;4960781;28;20058;-84
2022/02/06 11:33:50;;;;;;;4.20;0.77;;;5.90;99.90;;;;;;4943109;28;20027;-83
2022/02/06 11:42:58;;;;;;;4.72;0.70;;;5.90;99.90;;;;;;4962388;28;20042;-84
2022/02/06 11:45:26;;;;;;;6.32;0.80;;;6.10;99.90;;;;;;4921676;28;20866;-85
2022/02/06 11:48:14;;;;;;;6.50;1.00;;;6.20;99.90;;;;;;4975319;28;20046;-83
2022/02/06 11:50:48;;;;;;;5.88;1.05;;;6.30;99.90;;;;;;4972341;28;20025;-84
2022/02/06 11:53:26;;;;;;;4.95;0.80;;;6.20;99.90;;;;;;4974451;28;20043;-83
2022/02/06 11:55:53;;;;;;;5.85;0.93;;;6.30;99.90;;;;;;4968711;28;20066;-84
2022/02/06 11:58:31;;;;;;;9.18;2.63;;;6.20;99.90;;;;;;4960466;28;20031;-83
2022/02/06 12:01:06;;;;;;;5.50;2.30;;;6.20;99.90;;;;;;4958972;28;20027;-83
2022/02/06 12:03:50;;;;;;;10.27;5.30;;;6.30;99.90;;;;;;4973535;28;20039;-83
2022/02/06 12:06:18;;;;;;;9.38;3.15;;;6.30;99.90;;;;;;4979728;28;20028;-84
2022/02/06 12:09:04;;;;;;;7.18;1.77;;;6.30;99.90;;;;;;4965187;28;20164;-82
2022/02/06 12:11:32;;;;;;;7.10;1.50;;;6.30;99.90;;;;;;4945950;28;20132;-82
2022/02/06 12:14:19;;;;;;;6.25;1.52;;;6.30;99.90;;;;;;4975565;28;20050;-84
2022/02/06 12:16:52;;;;;;;11.15;4.05;;;6.30;99.90;;;;;;4980042;28;20027;-83
2022/02/06 12:19:32;;;;;;;10.25;5.15;;;6.30;99.90;;;;;;4965362;28;20051;-83
2022/02/06 12:22:28;;;;;;;11.75;3.80;;;6.30;99.90;;;;;;4980069;28;20030;-83
2022/02/06 12:25:23;;;;;;;12.80;4.78;;;6.30;99.90;;;;;;4976858;28;20418;-83
2022/02/06 12:27:50;;;;;;;7.97;2.40;;;6.30;99.90;;;;;;4978624;28;20023;-82
2022/02/06 12:30:30;;;;;;;8.23;2.10;;;6.30;99.90;;;;;;4961082;28;20032;-82
2022/02/06 12:33:42;;;;;;;7.20;1.98;;;6.30;99.90;;;;;;4974537;28;20023;-83
2022/02/06 12:39:13;;;;;;;5.68;1.27;;;6.40;99.90;;;;;;4965759;28;20049;-82
2022/02/06 12:41:45;;;;;;;11.07;2.65;;;6.50;99.90;;;;;;4948840;28;20066;-82
2022/02/06 12:44:14;;;;;;;;;;;6.50;99.90;;;;;;4980536;28;20030;-82
2022/02/06 12:46:40;;;;;;;9.75;1.40;;;6.40;99.90;;;;;;4978167;28;20309;-82
2022/02/06 12:49:06;;;;;;;10.48;2.08;;;6.50;99.90;;;;;;4945357;28;20557;-82
2022/02/06 12:51:35;;;;;;;13.00;1.42;;;6.50;99.90;;;;;;4944928;28;20043;-82
2022/02/06 12:54:06;;;;;;;11.20;1.40;;;6.60;99.90;;;;;;4975624;28;20191;-82
2022/02/06 12:56:33;;;;;;;8.80;1.90;;;6.60;99.90;;;;;;4959920;28;20123;-82
2022/02/06 12:59:00;;;;;;;19.05;6.35;;;6.60;99.90;;;;;;4962998;28;20038;-82
2022/02/06 13:01:43;;;;;;;16.52;6.07;;;6.70;99.90;;;;;;4962390;28;20165;-82
2022/02/06 13:04:15;;;;;;;9.75;3.60;;;6.70;99.90;;;;;;4975230;28;20035;-82
2022/02/06 13:06:46;;;;;;;13.88;1.92;;;6.70;99.90;;;;;;4973828;28;20026;-82
2022/02/06 13:09:35;;;;;;;7.60;1.57;;;6.70;99.90;;;;;;4976907;28;20023;-82
2022/02/06 13:12:08;;;;;;;8.35;1.52;;;6.80;99.90;;;;;;4973985;28;20785;-81
2022/02/06 13:25:58;;;;;;;10.13;1.80;;;6.80;99.90;;;;;;4941395;29;20467;-82
2022/02/06 13:28:43;;;;;;;11.15;1.60;;;6.80;99.90;;;;;;4939637;29;20132;-82
2022/02/06 13:38:53;;;;;;;15.50;6.03;;;6.90;99.90;;;;;;4936659;29;20047;-82
2022/02/06 13:41:24;;;;;;;14.07;2.70;;;7.00;99.90;;;;;;4938556;29;20465;-81
2022/02/06 13:43:53;;;;;;;11.55;2.72;;;7.10;99.90;;;;;;4937621;29;20040;-81
2022/02/06 13:46:23;;;;;;;11.30;1.95;;;7.10;99.90;;;;;;4934359;29;20042;-81
2022/02/06 13:48:49;;;;;;;11.52;1.95;;;7.30;99.90;;;;;;4938032;29;20363;-82
2022/02/06 13:51:16;;;;;;;11.40;2.38;;;7.40;99.90;;;;;;4939072;29;20035;-81
2022/02/06 13:54:01;;;;;;;19.30;2.50;;;7.50;99.90;;;;;;4940934;29;20046;-82
2022/02/06 13:56:30;;;;;;;9.45;1.92;;;7.60;99.90;;;;;;4940169;29;20087;-82
2022/02/06 13:59:03;;;;;;;14.95;2.10;;;7.60;99.90;;;;;;4937967;29;20059;-82
2022/02/06 14:01:51;;;;;;;11.45;2.35;;;7.70;99.90;;;;;;4953643;29;20035;-82
2022/02/06 14:04:35;;;;;;;14.00;2.17;;;7.70;99.90;;;;;;4936053;29;20062;-81
2022/02/06 14:07:23;;;;;;;9.13;1.95;;;7.80;99.90;;;;;;4939615;29;20047;-82
2022/02/06 14:10:03;;;;;;;9.65;2.30;;;7.80;99.90;;;;;;4935468;29;20032;-82
2022/02/06 14:12:29;;;;;;;8.38;2.50;;;7.80;99.90;;;;;;4952349;29;20099;-82
2022/02/06 14:14:59;;;;;;;11.43;2.28;;;7.80;99.90;;;;;;4941966;29;20083;-82
2022/02/06 14:17:37;;;;;;;13.20;2.15;;;7.90;99.90;;;;;;4940874;29;20020;-81
2022/02/06 14:20:12;;;;;;;19.95;5.35;;;7.90;99.90;;;;;;4955322;29;20047;-81
2022/02/06 14:22:44;;;;;;;13.43;2.17;;;7.90;99.90;;;;;;4939724;29;20028;-81
2022/02/06 14:25:29;;;;;;;12.13;2.22;;;7.90;99.90;;;;;;4936484;29;20020;-82
2022/02/06 14:27:56;;;;;;;13.80;2.15;;;7.90;99.90;;;;;;4934643;29;20020;-81
2022/02/06 14:30:25;;;;;;;9.93;1.90;;;8.00;99.90;;;;;;4954509;29;20024;-81
2022/02/06 14:33:03;;;;;;;15.07;2.35;;;8.00;99.90;;;;;;4940488;29;20546;-81
2022/02/06 14:36:00;;;;;;;14.93;2.45;;;7.90;99.90;;;;;;4939698;29;20155;-81
2022/02/06 14:38:42;;;;;;;13.00;2.92;;;7.80;99.90;;;;;;4935549;29;20023;-81
2022/02/06 14:44:00;;;;;;;17.90;2.90;;;7.70;99.90;;;;;;4940278;29;20094;-80
2022/02/06 14:46:27;;;;;;;15.95;3.05;;;7.80;99.90;;;;;;4936746;29;20121;-85
2022/02/06 14:48:53;;;;;;;13.55;2.72;;;7.70;99.90;;;;;;4937536;29;20044;-83
2022/02/06 14:51:20;;;;;;;10.00;2.25;;;7.70;99.90;;;;;;4937368;29;20059;-81
2022/02/06 14:53:46;;;;;;;11.23;2.40;;;7.70;99.90;;;;;;4932407;29;20111;-81
2022/02/06 14:56:13;;;;;;;13.52;1.95;;;7.60;99.90;;;;;;4922229;29;20047;-81
2022/02/06 14:58:40;;;;;;;13.00;2.72;;;7.60;99.90;;;;;;4957497;29;20067;-81
2022/02/06 15:01:06;;;;;;;14.18;2.72;;;7.60;99.90;;;;;;4942374;29;20028;-81
2022/02/06 15:03:32;;;;;;;13.57;2.33;;;7.60;99.90;;;;;;4957913;29;20028;-81
2022/02/06 15:05:58;;;;;;;14.38;2.97;;;7.60;99.90;;;;;;4926720;29;20027;-81
2022/02/06 15:08:24;;;;;;;15.80;3.33;;;7.50;99.90;;;;;;4941273;29;20032;-81
2022/02/06 15:10:51;;;;;;;10.07;2.15;;;7.50;99.90;;;;;;4926928;29;20035;-81
2022/02/06 15:13:17;;;;;;;13.98;2.40;;;7.50;99.90;;;;;;4907091;29;20028;-81
2022/02/06 15:15:55;;;;;;;13.85;2.60;;;7.40;99.90;;;;;;4942307;29;20043;-81
2022/02/06 15:20:48;;;;;;;9.82;1.90;;;7.30;99.90;;;;;;4943463;29;20042;-81
2022/02/06 15:23:13;;;;;;;13.05;2.70;;;7.30;99.90;;;;;;4941753;29;20054;-81
2022/02/06 15:25:39;;;;;;;10.63;2.53;;;7.20;99.90;;;;;;4940002;29;20152;-81
2022/02/06 15:28:04;;;;;;;13.25;2.35;;;7.20;99.90;;;;;;4926089;29;20079;-81
2022/02/06 15:30:30;;;;;;;14.02;2.38;;;7.30;99.90;;;;;;4942146;29;20028;-81
2022/02/06 15:32:56;;;;;;;10.27;2.10;;;7.20;99.90;;;;;;4943379;29;20035;-81
2022/02/06 15:35:22;;;;;;;12.15;2.13;;;7.20;99.90;;;;;;4942019;29;20050;-81
2022/02/06 15:37:48;;;;;;;15.38;2.50;;;7.20;99.90;;;;;;4957173;29;20063;-81
2022/02/06 15:40:17;;;;;;;16.48;3.45;;;7.20;99.90;;;;;;4957341;29;20039;-81
2022/02/06 15:42:46;;;;;;;13.82;4.00;;;7.10;99.90;;;;;;4924030;29;20021;-81
2022/02/06 15:45:12;;;;;;;19.30;3.05;;;7.10;99.90;;;;;;4913889;29;20106;-80
2022/02/06 15:47:38;;;;;;;14.88;3.58;;;7.00;99.90;;;;;;4941491;29;20047;-81
2022/02/06 15:50:06;;;;;;;15.65;3.58;;;7.00;99.90;;;;;;4942651;29;20496;-81
2022/02/06 15:52:32;;;;;;;16.42;4.72;;;7.00;99.90;;;;;;4941967;29;20039;-81
2022/02/06 15:54:58;;;;;;;22.25;3.95;;;6.90;99.90;;;;;;4942249;29;20047;-81
2022/02/06 15:57:24;;;;;;;17.27;3.20;;;6.90;99.90;;;;;;4938988;29;20028;-80
2022/02/06 15:59:51;;;;;;;10.77;2.22;;;6.90;99.90;;;;;;4941066;29;20039;-80
2022/02/06 16:02:17;;;;;;;16.13;3.20;;;6.80;99.90;;;;;;4941896;29;20165;-81
2022/02/06 16:04:43;;;;;;;14.02;3.00;;;6.80;99.90;;;;;;4941488;29;20075;-80
2022/02/06 16:07:09;;;;;;;14.93;3.05;;;6.80;99.90;;;;;;4930435;29;20461;-80
2022/02/06 16:09:35;;;;;;;16.92;3.05;;;6.80;99.90;;;;;;4941932;29;20048;-80
2022/02/06 16:12:06;;;;;;;12.93;2.47;;;6.80;99.90;;;;;;4938049;29;20078;-80
2022/02/06 16:14:33;;;;;;;11.00;1.70;;;6.70;99.90;;;;;;4937881;28;20390;-80